createdAt,value
2022-08-07T00:00:26.597Z,1002.13
2022-08-07T00:01:44.015Z,1002.11
2022-08-07T00:02:40.602Z,1002.11
2022-08-07T00:03:26.578Z,1002.15
2022-08-07T00:04:25.651Z,1002.13
2022-08-07T00:05:25.558Z,1002.09
2022-08-07T00:06:29.602Z,1002.07
2022-08-07T00:07:27.312Z,1002.06
2022-08-07T00:08:25.536Z,1002.04
2022-08-07T00:09:34.337Z,1002.07
2022-08-07T00:10:30.658Z,1002.07
2022-08-07T00:11:29.964Z,1002.08
2022-08-07T00:12:25.605Z,1002.08
2022-08-07T00:13:26.773Z,1002.08
2022-08-07T00:14:30.223Z,1002.06
2022-08-07T00:15:25.492Z,1002.02
2022-08-07T00:16:28.057Z,1002.06
2022-08-07T00:17:25.750Z,1002.05
2022-08-07T00:18:25.525Z,1001.98
2022-08-07T00:19:26.160Z,1001.98
2022-08-07T00:20:29.569Z,1001.93
2022-08-07T00:21:57.335Z,1001.97
2022-08-07T00:22:35.334Z,1001.95
2022-08-07T00:23:25.527Z,1001.99
2022-08-07T00:24:25.419Z,1001.97
2022-08-07T00:25:26.411Z,1001.96
2022-08-07T00:26:58.970Z,1001.95
2022-08-07T00:27:27.506Z,1002.01
2022-08-07T00:28:31.597Z,1001.98
2022-08-07T00:29:26.475Z,1002.01
2022-08-07T00:30:27.121Z,1001.97
2022-08-07T00:31:25.425Z,1002.01
2022-08-07T00:32:28.422Z,1001.98
2022-08-07T00:33:25.365Z,1001.94
2022-08-07T00:34:25.396Z,1001.95
2022-08-07T00:35:25.353Z,1001.96
2022-08-07T00:36:25.342Z,1001.87
2022-08-07T00:37:25.340Z,1001.86
2022-08-07T00:38:31.630Z,1001.93
2022-08-07T00:39:25.387Z,1001.88
2022-08-07T00:40:39.604Z,1001.87
2022-08-07T00:41:26.301Z,1001.88
2022-08-07T00:42:25.542Z,1001.93
2022-08-07T00:44:01.081Z,1001.91
2022-08-07T00:44:26.542Z,1001.87
2022-08-07T00:45:25.293Z,1001.90
2022-08-07T00:46:25.268Z,1001.87
2022-08-07T00:48:08.985Z,1001.82
2022-08-07T00:48:31.941Z,1001.83
2022-08-07T00:50:19.185Z,1001.83
2022-08-07T00:50:50.670Z,1001.82
2022-08-07T00:51:27.883Z,1001.79
2022-08-07T00:52:26.225Z,1001.83
2022-08-07T00:53:25.214Z,1001.74
2022-08-07T00:54:25.206Z,1001.80
2022-08-07T00:56:00.493Z,1001.74
2022-08-07T00:56:30.027Z,1001.75
2022-08-07T00:57:26.134Z,1001.77
2022-08-07T00:58:25.200Z,1001.76
2022-08-07T00:59:35.903Z,1001.74
2022-08-07T01:00:26.208Z,1001.77
2022-08-07T01:01:25.164Z,1001.72
2022-08-07T01:02:28.458Z,1001.75
2022-08-07T01:03:25.457Z,1001.81
2022-08-07T01:04:26.178Z,1001.82
2022-08-07T01:05:25.134Z,1001.84
2022-08-07T01:06:25.154Z,1001.80
2022-08-07T01:07:25.120Z,1001.77
2022-08-07T01:08:25.118Z,1001.79
2022-08-07T01:10:03.943Z,1001.75
2022-08-07T01:10:26.096Z,1001.76
2022-08-07T01:12:24.119Z,1001.75
2022-08-07T01:12:29.792Z,1001.74
2022-08-07T01:13:25.065Z,1001.69
2022-08-07T01:14:28.154Z,1001.70
2022-08-07T01:15:35.831Z,1001.73
2022-08-07T01:16:30.540Z,1001.67
2022-08-07T01:17:26.233Z,1001.72
2022-08-07T01:18:25.045Z,1001.71
2022-08-07T01:19:25.057Z,1001.71
2022-08-07T01:20:25.038Z,1001.70
2022-08-07T01:21:26.259Z,1001.65
2022-08-07T01:22:29.451Z,1001.64
2022-08-07T01:23:34.624Z,1001.73
2022-08-07T01:24:25.990Z,1001.71
2022-08-07T01:25:54.154Z,1001.70
2022-08-07T01:26:26.299Z,1001.68
2022-08-07T01:27:25.064Z,1001.65
2022-08-07T01:28:25.995Z,1001.67
2022-08-07T01:29:27.780Z,1001.76
2022-08-07T01:30:27.011Z,1001.69
2022-08-07T01:31:24.940Z,1001.70
2022-08-07T01:32:24.956Z,1001.69
2022-08-07T01:33:24.983Z,1001.69
2022-08-07T01:34:30.694Z,1001.63
2022-08-07T01:35:24.911Z,1001.65
2022-08-07T01:36:34.034Z,1001.67
2022-08-07T01:37:25.994Z,1001.67
2022-08-07T01:38:25.938Z,1001.64
2022-08-07T01:39:24.922Z,1001.69
2022-08-07T01:40:25.905Z,1001.70
2022-08-07T01:41:26.039Z,1001.72
2022-08-07T01:42:38.580Z,1001.70
2022-08-07T01:43:26.125Z,1001.70
2022-08-07T01:44:25.859Z,1001.72
2022-08-07T01:45:26.678Z,1001.70
2022-08-07T01:46:25.838Z,1001.68
2022-08-07T01:48:20.585Z,1001.73
2022-08-07T01:48:30.418Z,1001.76
2022-08-07T01:49:25.899Z,1001.80
2022-08-07T01:50:28.996Z,1001.77
2022-08-07T01:52:02.503Z,1001.78
2022-08-07T01:52:25.798Z,1001.78
2022-08-07T01:54:08.830Z,1001.72
2022-08-07T01:54:32.864Z,1001.73
2022-08-07T01:55:25.808Z,1001.71
2022-08-07T01:56:24.775Z,1001.70
2022-08-07T01:57:25.159Z,1001.76
2022-08-07T01:58:29.193Z,1001.71
2022-08-07T01:59:30.890Z,1001.76
2022-08-07T02:00:28.841Z,1001.70
2022-08-07T02:01:58.854Z,1001.69
2022-08-07T02:03:05.614Z,1001.72
2022-08-07T02:03:26.560Z,1001.68
2022-08-07T02:04:26.681Z,1001.74
2022-08-07T02:05:48.244Z,1001.74
2022-08-07T02:06:31.968Z,1001.66
2022-08-07T02:07:25.874Z,1001.69
2022-08-07T02:08:25.687Z,1001.74
2022-08-07T02:09:52.428Z,1001.68
2022-08-07T02:10:25.705Z,1001.70
2022-08-07T02:11:30.905Z,1001.67
2022-08-07T02:12:30.956Z,1001.71
2022-08-07T02:13:27.583Z,1001.74
2022-08-07T02:14:35.742Z,1001.72
2022-08-07T02:15:28.041Z,1001.69
2022-08-07T02:16:28.721Z,1001.75
2022-08-07T02:17:27.460Z,1001.68
2022-08-07T02:18:25.886Z,1001.69
2022-08-07T02:20:05.402Z,1001.66
2022-08-07T02:20:25.596Z,1001.67
2022-08-07T02:21:24.642Z,1001.64
2022-08-07T02:22:25.751Z,1001.68
2022-08-07T02:23:24.606Z,1001.70
2022-08-07T02:24:24.565Z,1001.70
2022-08-07T02:26:10.388Z,1001.74
2022-08-07T02:26:32.602Z,1001.71
2022-08-07T02:27:25.584Z,1001.67
2022-08-07T02:28:25.756Z,1001.69
2022-08-07T02:29:24.527Z,1001.71
2022-08-07T02:30:24.525Z,1001.66
2022-08-07T02:31:29.150Z,1001.71
2022-08-07T02:32:29.815Z,1001.71
2022-08-07T02:33:24.502Z,1001.71
2022-08-07T02:34:24.491Z,1001.74
2022-08-07T02:36:29.206Z,1001.65
2022-08-07T02:36:29.844Z,1001.66
2022-08-07T02:37:25.628Z,1001.63
2022-08-07T02:38:28.267Z,1001.67
2022-08-07T02:39:43.544Z,1001.64
2022-08-07T02:40:34.893Z,1001.64
2022-08-07T02:41:25.474Z,1001.70
2022-08-07T02:42:25.426Z,1001.59
2022-08-07T02:43:24.480Z,1001.57
2022-08-07T02:44:27.707Z,1001.61
2022-08-07T02:46:00.364Z,1001.62
2022-08-07T02:46:25.780Z,1001.62
2022-08-07T02:47:24.425Z,1001.61
2022-08-07T02:48:24.442Z,1001.56
2022-08-07T02:49:29.179Z,1001.63
2022-08-07T02:50:25.370Z,1001.66
2022-08-07T02:51:42.144Z,1001.63
2022-08-07T02:52:31.956Z,1001.61
2022-08-07T02:53:27.479Z,1001.59
2022-08-07T02:54:25.204Z,1001.56
2022-08-07T02:55:28.306Z,1001.62
2022-08-07T02:56:25.332Z,1001.68
2022-08-07T02:57:24.334Z,1001.64
2022-08-07T02:58:27.317Z,1001.61
2022-08-07T02:59:27.476Z,1001.62
2022-08-07T03:00:24.323Z,1001.64
2022-08-07T03:01:35.518Z,1001.54
2022-08-07T03:02:25.277Z,1001.63
2022-08-07T03:03:24.278Z,1001.59
2022-08-07T03:04:25.325Z,1001.55
2022-08-07T03:05:24.650Z,1001.57
2022-08-07T03:06:26.040Z,1001.56
2022-08-07T03:08:05.096Z,1001.59
2022-08-07T03:08:27.033Z,1001.58
2022-08-07T03:09:43.850Z,1001.57
2022-08-07T03:10:25.269Z,1001.58
2022-08-07T03:11:25.334Z,1001.55
2022-08-07T03:12:31.015Z,1001.60
2022-08-07T03:13:25.208Z,1001.57
2022-08-07T03:14:24.206Z,1001.56
2022-08-07T03:15:30.235Z,1001.57
2022-08-07T03:16:27.797Z,1001.61
2022-08-07T03:17:24.189Z,1001.63
2022-08-07T03:18:24.424Z,1001.56
2022-08-07T03:19:29.073Z,1001.60
2022-08-07T03:20:25.193Z,1001.60
2022-08-07T03:21:24.152Z,1001.58
2022-08-07T03:22:24.250Z,1001.60
2022-08-07T03:23:34.144Z,1001.54
2022-08-07T03:24:27.270Z,1001.57
2022-08-07T03:25:24.120Z,1001.55
2022-08-07T03:26:24.173Z,1001.62
2022-08-07T03:27:30.268Z,1001.59
2022-08-07T03:28:37.592Z,1001.61
2022-08-07T03:29:25.105Z,1001.58
2022-08-07T03:30:24.313Z,1001.63
2022-08-07T03:31:26.201Z,1001.57
2022-08-07T03:32:25.081Z,1001.57
2022-08-07T03:33:24.065Z,1001.51
2022-08-07T03:34:27.435Z,1001.55
2022-08-07T03:35:26.266Z,1001.55
2022-08-07T03:36:25.813Z,1001.52
2022-08-07T03:37:27.609Z,1001.51
2022-08-07T03:38:31.125Z,1001.49
2022-08-07T03:39:46.316Z,1001.50
2022-08-07T03:40:30.836Z,1001.50
2022-08-07T03:41:42.067Z,1001.55
2022-08-07T03:42:25.077Z,1001.57
2022-08-07T03:43:26.521Z,1001.56
2022-08-07T03:44:31.900Z,1001.53
2022-08-07T03:45:30.877Z,1001.55
2022-08-07T03:46:24.970Z,1001.49
2022-08-07T03:47:25.027Z,1001.54
2022-08-07T03:48:23.962Z,1001.56
2022-08-07T03:49:23.963Z,1001.54
2022-08-07T03:50:23.953Z,1001.50
2022-08-07T03:51:23.948Z,1001.55
2022-08-07T03:52:27.053Z,1001.55
2022-08-07T03:53:49.998Z,1001.54
2022-08-07T03:54:35.221Z,1001.53
2022-08-07T03:55:24.947Z,1001.52
2022-08-07T03:56:32.794Z,1001.54
2022-08-07T03:58:34.194Z,1001.53
2022-08-07T03:59:07.358Z,1001.57
2022-08-07T03:59:24.894Z,1001.53
2022-08-07T04:00:30.690Z,1001.61
2022-08-07T04:01:23.899Z,1001.57
2022-08-07T04:02:23.866Z,1001.56
2022-08-07T04:03:24.926Z,1001.58
2022-08-07T04:04:23.856Z,1001.54
2022-08-07T04:05:28.800Z,1001.57
2022-08-07T04:06:37.810Z,1001.53
2022-08-07T04:07:24.832Z,1001.56
2022-08-07T04:08:23.876Z,1001.60
2022-08-07T04:09:23.835Z,1001.52
2022-08-07T04:10:23.821Z,1001.54
2022-08-07T04:12:25.207Z,1001.55
2022-08-07T04:12:29.037Z,1001.49
2022-08-07T04:13:27.611Z,1001.54
2022-08-07T04:14:38.704Z,1001.52
2022-08-07T04:15:24.815Z,1001.51
2022-08-07T04:16:30.800Z,1001.50
2022-08-07T04:17:23.749Z,1001.49
2022-08-07T04:18:56.261Z,1001.57
2022-08-07T04:19:24.795Z,1001.58
2022-08-07T04:20:25.313Z,1001.54
2022-08-07T04:21:23.729Z,1001.53
2022-08-07T04:22:27.611Z,1001.56
2022-08-07T04:23:24.710Z,1001.56
2022-08-07T04:24:30.591Z,1001.57
2022-08-07T04:25:24.743Z,1001.46
2022-08-07T04:26:23.696Z,1001.54
2022-08-07T04:27:36.313Z,1001.53
2022-08-07T04:28:24.678Z,1001.58
2022-08-07T04:29:23.662Z,1001.58
2022-08-07T04:30:39.603Z,1001.58
2022-08-07T04:31:38.832Z,1001.58
2022-08-07T04:32:34.015Z,1001.61
2022-08-07T04:33:23.636Z,1001.65
2022-08-07T04:34:27.608Z,1001.53
2022-08-07T04:35:24.715Z,1001.55
2022-08-07T04:36:26.387Z,1001.58
2022-08-07T04:37:23.598Z,1001.58
2022-08-07T04:38:23.614Z,1001.60
2022-08-07T04:39:26.286Z,1001.64
2022-08-07T04:40:29.755Z,1001.69
2022-08-07T04:41:23.673Z,1001.63
2022-08-07T04:42:23.680Z,1001.67
2022-08-07T04:44:10.285Z,1001.57
2022-08-07T04:44:24.560Z,1001.62
2022-08-07T04:45:57.269Z,1001.65
2022-08-07T04:46:29.313Z,1001.61
2022-08-07T04:47:57.292Z,1001.59
2022-08-07T04:48:24.531Z,1001.60
2022-08-07T04:49:24.595Z,1001.64
2022-08-07T04:50:23.524Z,1001.58
2022-08-07T04:51:27.284Z,1001.71
2022-08-07T04:52:25.133Z,1001.60
2022-08-07T04:53:40.228Z,1001.67
2022-08-07T04:54:30.142Z,1001.69
2022-08-07T04:58:10.235Z,1001.73
2022-08-07T04:58:10.818Z,1001.77
2022-08-07T04:58:31.473Z,1001.70
2022-08-07T04:58:33.842Z,1001.72
2022-08-07T05:00:12.345Z,1001.67
2022-08-07T05:00:30.918Z,1001.71
2022-08-07T05:01:30.422Z,1001.79
2022-08-07T05:02:24.457Z,1001.75
2022-08-07T05:03:49.926Z,1001.71
2022-08-07T05:04:24.426Z,1001.66
2022-08-07T05:05:53.633Z,1001.73
2022-08-07T05:06:28.233Z,1001.73
2022-08-07T05:07:27.589Z,1001.77
2022-08-07T05:09:00.024Z,1001.80
2022-08-07T05:09:43.097Z,1001.81
2022-08-07T05:10:24.377Z,1001.80
2022-08-07T05:11:26.109Z,1001.75
2022-08-07T05:12:27.334Z,1001.80
2022-08-07T05:14:54.209Z,1001.80
2022-08-07T05:14:55.624Z,1001.79
2022-08-07T05:15:24.366Z,1001.82
2022-08-07T05:16:23.350Z,1001.84
2022-08-07T05:17:52.231Z,1001.84
2022-08-07T05:18:24.390Z,1001.84
2022-08-07T05:19:25.656Z,1001.88
2022-08-07T05:20:24.314Z,1001.90
2022-08-07T05:22:00.611Z,1001.92
2022-08-07T05:22:27.781Z,1001.98
2022-08-07T05:23:30.105Z,1001.91
2022-08-07T05:24:24.708Z,1001.90
2022-08-07T05:25:25.913Z,1001.95
2022-08-07T05:26:24.688Z,1001.94
2022-08-07T05:28:03.290Z,1001.89
2022-08-07T05:28:26.766Z,1001.89
2022-08-07T05:29:23.282Z,1001.88
2022-08-07T05:30:30.211Z,1001.78
2022-08-07T05:31:24.239Z,1001.84
2022-08-07T05:32:24.275Z,1001.88
2022-08-07T05:33:23.201Z,1001.87
2022-08-07T05:34:26.287Z,1001.94
2022-08-07T05:35:33.241Z,1001.89
2022-08-07T05:36:30.535Z,1001.85
2022-08-07T05:37:25.172Z,1001.96
2022-08-07T05:39:00.226Z,1001.88
2022-08-07T05:40:14.377Z,1001.94
2022-08-07T05:40:24.256Z,1001.91
2022-08-07T05:41:23.220Z,1001.97
2022-08-07T05:42:34.925Z,1001.89
2022-08-07T05:43:49.631Z,1001.94
2022-08-07T05:44:29.540Z,1001.97
2022-08-07T05:45:46.084Z,1001.97
2022-08-07T05:46:26.419Z,1001.96
2022-08-07T05:48:00.015Z,1001.97
2022-08-07T05:48:26.394Z,1002.02
2022-08-07T05:49:23.104Z,1001.99
2022-08-07T05:50:23.109Z,1001.99
2022-08-07T05:51:23.159Z,1002.01
2022-08-07T05:52:32.179Z,1002.06
2022-08-07T05:54:12.100Z,1001.99
2022-08-07T05:54:30.878Z,1002.05
2022-08-07T05:55:24.088Z,1002.05
2022-08-07T05:56:30.027Z,1002.02
2022-08-07T05:57:23.049Z,1002.05
2022-08-07T05:58:36.330Z,1002.05
2022-08-07T05:59:24.044Z,1002.04
2022-08-07T06:00:23.032Z,1002.04
2022-08-07T06:01:23.048Z,1002.04
2022-08-07T06:02:29.016Z,1002.06
2022-08-07T06:03:24.010Z,1002.10
2022-08-07T06:04:30.100Z,1002.02
2022-08-07T06:05:25.840Z,1002.06
2022-08-07T06:06:23.989Z,1002.06
2022-08-07T06:08:14.073Z,1001.99
2022-08-07T06:08:31.325Z,1002.05
2022-08-07T06:09:22.965Z,1002.01
2022-08-07T06:10:23.958Z,1002.01
2022-08-07T06:11:22.991Z,1002.04
2022-08-07T06:12:31.864Z,1002.01
2022-08-07T06:14:10.641Z,1002.06
2022-08-07T06:14:28.786Z,1002.00
2022-08-07T06:15:38.453Z,1002.02
2022-08-07T06:16:23.909Z,1002.04
2022-08-07T06:17:32.161Z,1002.01
2022-08-07T06:18:23.948Z,1002.05
2022-08-07T06:19:51.922Z,1001.98
2022-08-07T06:20:32.009Z,1002.06
2022-08-07T06:22:15.778Z,1002.11
2022-08-07T06:22:27.260Z,1002.08
2022-08-07T06:23:46.909Z,1002.07
2022-08-07T06:24:52.186Z,1002.07
2022-08-07T06:25:23.871Z,1002.10
2022-08-07T06:26:27.763Z,1002.10
2022-08-07T06:27:23.093Z,1002.13
2022-08-07T06:28:27.755Z,1002.08
2022-08-07T06:29:22.866Z,1002.11
2022-08-07T06:30:31.768Z,1002.08
2022-08-07T06:31:24.299Z,1002.10
2022-08-07T06:32:23.817Z,1002.06
2022-08-07T06:33:23.793Z,1002.11
2022-08-07T06:34:22.783Z,1002.02
2022-08-07T06:35:22.813Z,1002.01
2022-08-07T06:36:35.059Z,1001.94
2022-08-07T06:37:23.764Z,1001.98
2022-08-07T06:38:23.761Z,1001.96
2022-08-07T06:40:16.739Z,1001.99
2022-08-07T06:40:23.919Z,1001.91
2022-08-07T06:41:47.625Z,1002.01
2022-08-07T06:42:33.058Z,1001.93
2022-08-07T06:43:23.825Z,1001.93
2022-08-07T06:44:22.719Z,1001.90
2022-08-07T06:45:22.717Z,1001.92
2022-08-07T06:46:31.313Z,1001.92
2022-08-07T06:47:23.752Z,1001.87
2022-08-07T06:48:24.759Z,1001.85
2022-08-07T06:49:22.681Z,1001.92
2022-08-07T06:50:22.673Z,1001.87
2022-08-07T06:51:31.016Z,1001.95
2022-08-07T06:52:31.271Z,1001.94
2022-08-07T06:55:29.206Z,1001.84
2022-08-07T06:55:31.950Z,1001.82
2022-08-07T06:55:32.640Z,1001.85
2022-08-07T06:56:23.687Z,1001.85
2022-08-07T06:57:39.337Z,1001.82
2022-08-07T06:58:27.428Z,1001.88
2022-08-07T07:00:12.532Z,1001.85
2022-08-07T07:00:23.618Z,1001.86
2022-08-07T07:01:22.642Z,1001.85
2022-08-07T07:02:49.236Z,1001.76
2022-08-07T07:03:26.470Z,1001.77
2022-08-07T07:04:32.941Z,1001.82
2022-08-07T07:06:04.789Z,1001.75
2022-08-07T07:06:26.168Z,1001.83
2022-08-07T07:07:59.472Z,1001.79
2022-08-07T07:08:25.651Z,1001.75
2022-08-07T07:09:22.584Z,1001.80
2022-08-07T07:10:22.535Z,1001.79
2022-08-07T07:12:09.096Z,1001.77
2022-08-07T07:12:31.135Z,1001.79
2022-08-07T07:13:43.635Z,1001.71
2022-08-07T07:14:24.511Z,1001.71
2022-08-07T07:15:26.207Z,1001.72
2022-08-07T07:16:22.543Z,1001.71
2022-08-07T07:17:22.494Z,1001.76
2022-08-07T07:18:47.797Z,1001.75
2022-08-07T07:19:55.479Z,1001.74
2022-08-07T07:20:23.468Z,1001.67
2022-08-07T07:21:24.330Z,1001.76
2022-08-07T07:22:36.547Z,1001.70
2022-08-07T07:24:08.376Z,1001.75
2022-08-07T07:24:23.443Z,1001.74
2022-08-07T07:26:35.418Z,1001.68
2022-08-07T07:26:35.622Z,1001.74
2022-08-07T07:27:23.417Z,1001.68
2022-08-07T07:28:42.369Z,1001.62
2022-08-07T07:29:57.050Z,1001.63
2022-08-07T07:30:26.524Z,1001.66
2022-08-07T07:31:23.372Z,1001.59
2022-08-07T07:32:22.422Z,1001.65
2022-08-07T07:33:22.381Z,1001.58
2022-08-07T07:34:22.367Z,1001.60
2022-08-07T07:35:22.369Z,1001.60
2022-08-07T07:36:22.356Z,1001.62
2022-08-07T07:37:47.413Z,1001.62
2022-08-07T07:38:23.346Z,1001.62
2022-08-07T07:39:22.404Z,1001.61
2022-08-07T07:40:25.237Z,1001.66
2022-08-07T07:41:23.325Z,1001.60
2022-08-07T07:42:33.049Z,1001.60
2022-08-07T07:43:27.633Z,1001.61
2022-08-07T07:44:26.590Z,1001.54
2022-08-07T07:46:33.409Z,1001.59
2022-08-07T07:46:53.349Z,1001.50
2022-08-07T07:47:24.042Z,1001.55
2022-08-07T07:48:35.082Z,1001.51
2022-08-07T07:50:34.083Z,1001.50
2022-08-07T07:50:35.337Z,1001.55
2022-08-07T07:51:23.253Z,1001.53
2022-08-07T07:52:22.241Z,1001.52
2022-08-07T07:53:23.266Z,1001.57
2022-08-07T07:54:22.245Z,1001.54
2022-08-07T07:55:22.958Z,1001.53
2022-08-07T07:56:30.629Z,1001.50
2022-08-07T07:57:52.103Z,1001.47
2022-08-07T07:58:23.229Z,1001.45
2022-08-07T07:59:23.842Z,1001.51
2022-08-07T08:00:31.270Z,1001.48
2022-08-07T08:02:02.619Z,1001.40
2022-08-07T08:02:35.463Z,1001.42
2022-08-07T08:04:10.467Z,1001.41
2022-08-07T08:04:25.747Z,1001.43
2022-08-07T08:05:22.368Z,1001.46
2022-08-07T08:06:23.142Z,1001.44
2022-08-07T08:07:22.130Z,1001.35
2022-08-07T08:08:34.372Z,1001.40
2022-08-07T08:09:23.293Z,1001.39
2022-08-07T08:10:37.584Z,1001.41
2022-08-07T08:11:59.677Z,1001.44
2022-08-07T08:12:52.531Z,1001.46
2022-08-07T08:13:24.118Z,1001.45
2022-08-07T08:14:26.355Z,1001.39
2022-08-07T08:15:23.327Z,1001.42
2022-08-07T08:16:24.965Z,1001.41
2022-08-07T08:18:23.148Z,1001.44
2022-08-07T08:18:36.433Z,1001.37
2022-08-07T08:20:17.494Z,1001.36
2022-08-07T08:20:27.380Z,1001.40
2022-08-07T08:21:23.021Z,1001.35
2022-08-07T08:22:23.030Z,1001.46
2022-08-07T08:23:22.095Z,1001.39
2022-08-07T08:24:36.115Z,1001.39
2022-08-07T08:25:41.725Z,1001.45
2022-08-07T08:26:23.003Z,1001.36
2022-08-07T08:27:21.993Z,1001.36
2022-08-07T08:28:23.951Z,1001.35
2022-08-07T08:29:22.998Z,1001.36
2022-08-07T08:30:21.980Z,1001.30
2022-08-07T08:31:30.399Z,1001.38
2022-08-07T08:32:25.447Z,1001.34
2022-08-07T08:33:23.077Z,1001.29
2022-08-07T08:34:27.252Z,1001.32
2022-08-07T08:35:21.935Z,1001.39
2022-08-07T08:36:25.704Z,1001.28
2022-08-07T08:38:01.128Z,1001.28
2022-08-07T08:38:29.582Z,1001.29
2022-08-07T08:39:21.979Z,1001.23
2022-08-07T08:40:23.506Z,1001.26
2022-08-07T08:41:22.952Z,1001.21
2022-08-07T08:42:21.882Z,1001.14
2022-08-07T08:43:22.044Z,1001.19
2022-08-07T08:44:29.135Z,1001.20
2022-08-07T08:45:22.884Z,1001.20
2022-08-07T08:46:22.063Z,1001.21
2022-08-07T08:47:21.842Z,1001.24
2022-08-07T08:48:21.854Z,1001.25
2022-08-07T08:49:32.803Z,1001.21
2022-08-07T08:50:35.120Z,1001.23
2022-08-07T08:51:26.214Z,1001.22
2022-08-07T08:52:22.815Z,1001.13
2022-08-07T08:53:22.812Z,1001.20
2022-08-07T08:54:21.821Z,1001.17
2022-08-07T08:55:54.784Z,1001.15
2022-08-07T08:56:24.562Z,1001.17
2022-08-07T08:57:22.799Z,1001.15
2022-08-07T08:58:28.526Z,1001.15
2022-08-07T08:59:21.810Z,1001.17
2022-08-07T09:00:21.765Z,1001.19
2022-08-07T09:01:22.796Z,1001.09
2022-08-07T09:02:34.778Z,1001.08
2022-08-07T09:03:22.734Z,1001.08
2022-08-07T09:04:26.086Z,1001.09
2022-08-07T09:05:37.437Z,1001.01
2022-08-07T09:06:23.697Z,1001.06
2022-08-07T09:07:23.204Z,1001.05
2022-08-07T09:08:28.145Z,1001.05
2022-08-07T09:09:29.761Z,1000.97
2022-08-07T09:10:21.706Z,1000.94
2022-08-07T09:11:43.014Z,1001.07
2022-08-07T09:12:30.969Z,1001.03
2022-08-07T09:13:36.958Z,1001.04
2022-08-07T09:14:22.655Z,1001.07
2022-08-07T09:16:24.819Z,1001.05
2022-08-07T09:16:29.745Z,1001.01
2022-08-07T09:17:23.694Z,1001.02
2022-08-07T09:18:23.380Z,1001.00
2022-08-07T09:19:51.377Z,1001.01
2022-08-07T09:20:35.010Z,1001.06
2022-08-07T09:21:58.088Z,1001.06
2022-08-07T09:24:31.147Z,1000.95
2022-08-07T09:24:32.367Z,1001.03
2022-08-07T09:24:32.871Z,1000.97
2022-08-07T09:25:24.379Z,1000.95
2022-08-07T09:26:21.568Z,1000.93
2022-08-07T09:27:21.589Z,1000.89
2022-08-07T09:30:00.815Z,1000.89
2022-08-07T09:30:01.234Z,1000.88
2022-08-07T09:30:25.388Z,1000.92
2022-08-07T09:31:22.536Z,1000.93
2022-08-07T09:32:21.558Z,1000.87
2022-08-07T09:33:41.089Z,1000.82
2022-08-07T09:34:22.514Z,1000.83
2022-08-07T09:36:04.929Z,1000.79
2022-08-07T09:36:22.498Z,1000.72
2022-08-07T09:37:33.499Z,1000.74
2022-08-07T09:38:23.259Z,1000.74
2022-08-07T09:39:53.833Z,1000.80
2022-08-07T09:40:22.564Z,1000.68
2022-08-07T09:41:22.284Z,1000.63
2022-08-07T09:42:23.142Z,1000.59
2022-08-07T09:43:21.485Z,1000.65
2022-08-07T09:44:40.273Z,1000.63
2022-08-07T09:47:19.996Z,1000.64
2022-08-07T09:47:52.061Z,1000.61
2022-08-07T09:47:52.711Z,1000.53
2022-08-07T09:48:22.640Z,1000.55
2022-08-07T09:50:00.978Z,1000.52
2022-08-07T09:50:22.412Z,1000.48
2022-08-07T09:52:10.033Z,1000.48
2022-08-07T09:52:34.241Z,1000.59
2022-08-07T09:53:22.368Z,1000.53
2022-08-07T09:54:21.693Z,1000.57
2022-08-07T09:55:36.869Z,1000.56
2022-08-07T09:56:37.305Z,1000.54
2022-08-07T09:57:22.395Z,1000.47
2022-08-07T09:58:21.325Z,1000.44
2022-08-07T09:59:24.868Z,1000.45
2022-08-07T10:00:21.317Z,1000.39
2022-08-07T10:01:51.100Z,1000.44
2022-08-07T10:02:24.177Z,1000.40
2022-08-07T10:04:05.963Z,1000.40
2022-08-07T10:04:28.331Z,1000.38
2022-08-07T10:05:58.223Z,1000.40
2022-08-07T10:06:24.516Z,1000.39
2022-08-07T10:07:24.406Z,1000.36
2022-08-07T10:08:21.260Z,1000.34
2022-08-07T10:09:34.216Z,1000.21
2022-08-07T10:10:22.757Z,1000.25
2022-08-07T10:12:01.990Z,1000.23
2022-08-07T10:12:26.327Z,1000.13
2022-08-07T10:13:55.556Z,1000.15
2022-08-07T10:14:23.095Z,1000.15
2022-08-07T10:15:22.213Z,1000.16
2022-08-07T10:16:21.251Z,1000.16
2022-08-07T10:17:21.226Z,1000.12
2022-08-07T10:18:26.248Z,1000.11
2022-08-07T10:19:21.176Z,1000.03
2022-08-07T10:20:21.854Z,999.94
2022-08-07T10:22:12.366Z,1000.00
2022-08-07T10:22:24.929Z,1000.00
2022-08-07T10:24:05.920Z,1000.07
2022-08-07T10:24:22.138Z,1000.06
2022-08-07T10:25:22.863Z,1000.02
2022-08-07T10:26:24.675Z,1000.01
2022-08-07T10:27:21.228Z,1000.00
2022-08-07T10:28:21.133Z,1000.05
2022-08-07T10:29:21.099Z,1000.00
2022-08-07T10:30:21.094Z,1000.02
2022-08-07T10:31:21.074Z,1000.02
2022-08-07T10:32:51.495Z,1000.00
2022-08-07T10:33:23.623Z,1000.04
2022-08-07T10:34:31.832Z,999.99
2022-08-07T10:35:25.521Z,1000.05
2022-08-07T10:36:29.655Z,1000.07
2022-08-07T10:37:26.577Z,999.97
2022-08-07T10:38:42.006Z,999.99
2022-08-07T10:39:22.114Z,1000.03
2022-08-07T10:40:21.227Z,999.96
2022-08-07T10:41:46.508Z,1000.01
2022-08-07T10:42:31.412Z,1000.01
2022-08-07T10:43:29.801Z,999.96
2022-08-07T10:44:28.883Z,999.94
2022-08-07T10:45:44.120Z,999.94
2022-08-07T10:46:21.984Z,999.92
2022-08-07T10:47:26.865Z,999.89
2022-08-07T10:48:21.987Z,999.93
2022-08-07T10:49:24.620Z,999.92
2022-08-07T10:50:25.908Z,999.93
2022-08-07T10:51:57.675Z,999.92
2022-08-07T10:52:21.931Z,999.82
2022-08-07T10:53:21.280Z,999.79
2022-08-07T10:54:20.934Z,999.80
2022-08-07T10:55:38.158Z,999.87
2022-08-07T10:56:30.901Z,999.83
2022-08-07T10:57:33.977Z,999.77
2022-08-07T10:58:24.930Z,999.83
2022-08-07T10:59:22.202Z,999.85
2022-08-07T11:00:36.475Z,999.83
2022-08-07T11:01:23.635Z,999.82
2022-08-07T11:02:33.038Z,999.75
2022-08-07T11:03:21.910Z,999.82
2022-08-07T11:04:32.188Z,999.77
2022-08-07T11:05:24.097Z,999.70
2022-08-07T11:06:22.039Z,999.76
2022-08-07T11:07:56.074Z,999.70
2022-08-07T11:08:21.848Z,999.67
2022-08-07T11:10:10.389Z,999.72
2022-08-07T11:10:21.815Z,999.74
2022-08-07T11:11:21.828Z,999.75
2022-08-07T11:12:31.826Z,999.75
2022-08-07T11:14:45.252Z,999.72
2022-08-07T11:14:57.067Z,999.69
2022-08-07T11:15:21.770Z,999.71
2022-08-07T11:16:21.781Z,999.68
2022-08-07T11:17:23.211Z,999.70
2022-08-07T11:18:21.786Z,999.71
2022-08-07T11:19:21.825Z,999.66
2022-08-07T11:20:22.497Z,999.64
2022-08-07T11:21:20.739Z,999.70
2022-08-07T11:22:32.368Z,999.64
2022-08-07T11:23:30.309Z,999.71
2022-08-07T11:24:21.717Z,999.66
2022-08-07T11:25:21.717Z,999.57
2022-08-07T11:26:20.719Z,999.55
2022-08-07T11:27:20.757Z,999.59
2022-08-07T11:28:21.742Z,999.55
2022-08-07T11:29:43.116Z,999.56
2022-08-07T11:30:41.989Z,999.47
2022-08-07T11:31:21.685Z,999.49
2022-08-07T11:32:25.252Z,999.43
2022-08-07T11:33:54.011Z,999.49
2022-08-07T11:34:21.679Z,999.49
2022-08-07T11:35:25.291Z,999.48
2022-08-07T11:36:30.646Z,999.44
2022-08-07T11:37:24.392Z,999.43
2022-08-07T11:38:21.775Z,999.39
2022-08-07T11:39:21.711Z,999.39
2022-08-07T11:40:20.648Z,999.35
2022-08-07T11:41:31.007Z,999.34
2022-08-07T11:42:21.639Z,999.29
2022-08-07T11:43:41.576Z,999.27
2022-08-07T11:44:21.645Z,999.26
2022-08-07T11:45:23.813Z,999.21
2022-08-07T11:46:21.602Z,999.31
2022-08-07T11:47:20.605Z,999.31
2022-08-07T11:48:29.460Z,999.24
2022-08-07T11:49:51.021Z,999.31
2022-08-07T11:50:31.757Z,999.25
2022-08-07T11:51:41.475Z,999.30
2022-08-07T11:52:29.385Z,999.28
2022-08-07T11:53:21.751Z,999.25
2022-08-07T11:54:22.107Z,999.24
2022-08-07T11:56:25.936Z,999.31
2022-08-07T11:56:26.366Z,999.26
2022-08-07T11:57:20.534Z,999.25
2022-08-07T11:58:21.521Z,999.27
2022-08-07T12:00:12.504Z,999.22
2022-08-07T12:00:28.449Z,999.26
2022-08-07T12:01:22.200Z,999.24
2022-08-07T12:02:29.928Z,999.21
2022-08-07T12:03:44.910Z,999.17
2022-08-07T12:04:21.494Z,999.16
2022-08-07T12:05:28.909Z,999.18
2022-08-07T12:06:37.402Z,999.17
2022-08-07T12:07:27.338Z,999.16
2022-08-07T12:08:25.734Z,999.09